Time;durP1;ratioP1;P1;durP2;ratioP2;P2;SDS_P1;SDS_P2;PMS_P1;PMS_P2;Temp;Humidity;BMP_temperature;BMP_pressure;BME280_temperature;BME280_humidity;BME280_pressure;Samples;Min_cycle;Max_cycle;Signal;HPM_P1;HPM_P2
2022/03/14 00:03:58;;;;;;;4.60;3.42;;;;;;;10.86;90.47;100710.91;8358884;28;20085;-64
2022/03/14 00:08:00;;;;;;;3.88;3.40;;;;;;;11.05;89.49;100717.22;8358431;28;20159;-64
2022/03/14 00:12:00;;;;;;;5.65;3.30;;;;;;;11.08;89.27;100733.16;8358138;28;20037;-64
2022/03/14 00:16:02;;;;;;;3.75;3.05;;;;;;;11.15;88.54;100737.03;8358244;28;20029;-64
2022/03/14 00:20:06;;;;;;;3.35;3.05;;;;;;;11.22;88.28;100745.41;8357963;28;20124;-64
2022/03/14 00:24:08;;;;;;;5.50;3.55;;;;;;;11.17;88.32;100762.09;8360094;28;20183;-64
2022/03/14 00:28:08;;;;;;;3.97;3.17;;;;;;;11.16;88.65;100762.25;8355831;28;20485;-64
2022/03/14 00:32:10;;;;;;;4.78;2.83;;;;;;;11.26;87.85;100763.94;8357960;28;20400;-64
2022/03/14 00:36:10;;;;;;;3.80;3.15;;;;;;;11.21;88.40;100762.66;8358723;28;20044;-64
2022/03/14 00:40:11;;;;;;;5.60;3.60;;;;;;;11.18;88.35;100766.50;8358325;28;20105;-64
2022/03/14 00:44:15;;;;;;;5.00;3.80;;;;;;;11.19;88.60;100773.63;8358386;28;20057;-64
2022/03/14 00:48:15;;;;;;;4.18;3.63;;;;;;;11.24;88.25;100779.50;8358533;28;20040;-64
2022/03/14 00:52:17;;;;;;;3.92;2.97;;;;;;;11.26;88.13;100771.22;8340031;28;20393;-64
2022/03/14 00:56:20;;;;;;;6.10;3.70;;;;;;;11.35;87.94;100779.34;8351556;28;20037;-64
2022/03/14 01:00:20;;;;;;;3.53;3.05;;;;;;;11.37;87.50;100771.97;8340050;28;20045;-64
2022/03/14 01:04:21;;;;;;;4.00;3.17;;;;;;;11.46;87.13;100779.25;8358013;28;20058;-64
2022/03/14 01:08:21;;;;;;;5.53;2.97;;;;;;;11.55;86.94;100789.25;8357754;28;20500;-64
2022/03/14 01:12:22;;;;;;;3.85;2.85;;;;;;;11.44;87.24;100778.53;8356392;28;20068;-64
2022/03/14 01:16:22;;;;;;;4.35;3.35;;;;;;;11.41;87.42;100789.63;8339008;28;20464;-64
2022/03/14 01:20:23;;;;;;;4.82;3.50;;;;;;;11.31;88.29;100788.75;8356951;28;20045;-64
2022/03/14 01:24:24;;;;;;;5.82;3.70;;;;;;;11.34;87.90;100804.72;8339043;28;20485;-64
2022/03/14 01:28:25;;;;;;;5.78;3.90;;;;;;;11.21;89.85;100808.66;8357099;28;20029;-64
2022/03/14 01:32:25;;;;;;;4.60;3.30;;;;;;;11.36;88.97;100813.56;8338714;28;20055;-64
2022/03/14 01:36:26;;;;;;;4.05;3.30;;;;;;;11.30;89.15;100816.84;8339191;28;20029;-64
2022/03/14 01:40:28;;;;;;;5.13;3.22;;;;;;;11.28;88.97;100818.81;8339127;28;20049;-64
2022/03/14 01:44:28;;;;;;;5.35;3.67;;;;;;;11.41;88.64;100818.56;8322518;28;20442;-64
2022/03/14 01:48:29;;;;;;;4.55;3.20;;;;;;;11.43;88.71;100824.69;8355783;28;20033;-65
2022/03/14 01:52:29;;;;;;;6.00;3.47;;;;;;;11.36;90.06;100837.94;8356142;28;20397;-64
2022/03/14 01:56:35;;;;;;;7.05;4.30;;;;;;;11.18;93.26;100836.00;8338285;28;20481;-64
2022/03/14 02:00:36;;;;;;;6.80;4.07;;;;;;;11.02;96.44;100836.53;8354534;28;20424;-64
2022/03/14 02:04:36;;;;;;;5.60;4.40;;;;;;;10.85;99.59;100833.56;8356439;28;20047;-64
2022/03/14 02:08:37;;;;;;;6.78;4.30;;;;;;;10.67;100.00;100836.03;8336973;28;20520;-64
2022/03/14 02:12:42;;;;;;;5.32;4.25;;;;;;;10.59;100.00;100843.13;8355982;28;20039;-64
2022/03/14 02:16:43;;;;;;;7.57;4.88;;;;;;;10.54;100.00;100851.63;8355808;28;20563;-64
2022/03/14 02:20:44;;;;;;;5.90;4.32;;;;;;;10.53;100.00;100862.56;8355287;28;20449;-64
2022/03/14 02:24:46;;;;;;;7.88;5.28;;;;;;;10.58;100.00;100863.88;8355856;28;20128;-64
2022/03/14 02:28:47;;;;;;;9.38;5.95;;;;;;;10.52;100.00;100869.81;8355206;28;20365;-64
2022/03/14 02:32:48;;;;;;;8.05;5.32;;;;;;;10.50;100.00;100869.09;8355440;28;20041;-64
2022/03/14 02:36:48;;;;;;;10.23;6.57;;;;;;;10.51;100.00;100873.50;8355701;28;20067;-64
2022/03/14 02:40:49;;;;;;;8.15;5.25;;;;;;;10.48;100.00;100878.31;8347461;28;20067;-64
2022/03/14 02:44:49;;;;;;;8.00;6.18;;;;;;;10.47;100.00;100891.00;8368676;28;20111;-64
2022/03/14 02:48:50;;;;;;;10.57;6.68;;;;;;;10.43;100.00;100892.22;8354739;28;20048;-64
2022/03/14 02:52:50;;;;;;;10.98;6.45;;;;;;;10.43;100.00;100903.03;8354215;28;20033;-64
2022/03/14 02:56:51;;;;;;;11.65;7.07;;;;;;;10.45;100.00;100911.88;8354866;28;20036;-64
2022/03/14 03:00:52;;;;;;;11.68;7.40;;;;;;;10.43;100.00;100924.66;8357307;28;20536;-64
2022/03/14 03:04:52;;;;;;;12.50;7.63;;;;;;;10.41;100.00;100923.06;8361083;28;20052;-64
2022/03/14 03:08:54;;;;;;;12.43;7.57;;;;;;;10.40;100.00;100930.31;8360500;28;20558;-64
2022/03/14 03:12:55;;;;;;;12.68;7.22;;;;;;;10.39;100.00;100938.56;8360681;28;20033;-64
2022/03/14 03:16:55;;;;;;;13.43;6.85;;;;;;;10.39;100.00;100946.66;8360815;28;20063;-64
2022/03/14 03:20:56;;;;;;;12.20;8.57;;;;;;;10.31;100.00;100949.16;8360213;28;20463;-64
2022/03/14 03:24:56;;;;;;;13.63;8.10;;;;;;;10.28;100.00;100952.97;8340305;28;20037;-64
2022/03/14 03:28:56;;;;;;;11.70;7.78;;;;;;;10.28;100.00;100963.78;8364948;28;20605;-64
2022/03/14 03:32:57;;;;;;;13.20;7.95;;;;;;;10.27;100.00;100972.88;8360689;28;20195;-64
2022/03/14 03:36:57;;;;;;;12.00;7.55;;;;;;;10.24;100.00;100983.94;8342175;28;20040;-64
2022/03/14 03:40:58;;;;;;;11.18;6.90;;;;;;;10.24;100.00;100992.06;8359067;28;20409;-65
2022/03/14 03:44:58;;;;;;;11.77;7.57;;;;;;;10.25;100.00;100996.50;8360207;28;20033;-64
2022/03/14 03:48:59;;;;;;;12.07;8.07;;;;;;;10.39;100.00;101006.13;8359518;28;20338;-65
2022/03/14 03:52:59;;;;;;;11.82;7.68;;;;;;;10.30;100.00;101005.06;8359588;28;20037;-65
2022/03/14 03:56:59;;;;;;;10.18;7.10;;;;;;;10.40;100.00;101014.09;8359292;28;20037;-65
2022/03/14 04:01:00;;;;;;;11.32;6.60;;;;;;;10.46;100.00;101016.31;8359145;28;20072;-65
2022/03/14 04:05:00;;;;;;;10.25;6.60;;;;;;;10.54;100.00;101021.94;8359445;28;20253;-65
2022/03/14 04:09:01;;;;;;;7.45;4.88;;;;;;;10.53;100.00;101033.75;8359148;28;20048;-65
2022/03/14 04:13:03;;;;;;;6.35;5.07;;;;;;;10.47;100.00;101036.97;8358477;28;20108;-65
2022/03/14 04:17:04;;;;;;;6.57;4.72;;;;;;;10.57;100.00;101039.75;8358947;28;20562;-65
2022/03/14 04:21:05;;;;;;;7.65;4.70;;;;;;;10.48;100.00;101054.88;8358252;28;20463;-64
2022/03/14 04:25:07;;;;;;;7.10;4.85;;;;;;;10.59;100.00;101060.28;8359199;28;20041;-65
2022/03/14 04:29:08;;;;;;;4.75;3.72;;;;;;;10.59;100.00;101067.50;8358325;28;20400;-64
2022/03/14 04:33:09;;;;;;;3.83;2.95;;;;;;;10.66;100.00;101076.81;8363764;28;20037;-64
2022/03/14 04:37:11;;;;;;;4.82;2.50;;;;;;;10.64;100.00;101074.25;8358796;28;20044;-65
2022/03/14 04:41:12;;;;;;;2.45;2.17;;;;;;;10.67;100.00;101079.41;8358224;28;20040;-64
2022/03/14 04:45:12;;;;;;;2.53;2.22;;;;;;;10.65;100.00;101080.53;8357856;28;20040;-66
2022/03/14 04:49:13;;;;;;;4.47;2.10;;;;;;;10.62;100.00;101088.91;8357602;28;20517;-64
2022/03/14 04:53:13;;;;;;;3.30;2.30;;;;;;;10.68;100.00;101096.50;8340365;28;20063;-64
2022/03/14 04:57:14;;;;;;;5.68;2.25;;;;;;;10.60;100.00;101094.44;8340066;28;20475;-64
2022/03/14 05:01:15;;;;;;;5.63;2.10;;;;;;;10.61;100.00;101106.94;8357093;28;20447;-64
2022/03/14 05:05:16;;;;;;;4.15;2.30;;;;;;;10.62;100.00;101114.09;8339568;28;20489;-64
2022/03/14 05:09:16;;;;;;;3.92;2.38;;;;;;;10.54;100.00;101113.00;8355942;28;20041;-64
2022/03/14 05:13:17;;;;;;;6.72;2.78;;;;;;;10.53;100.00;101125.66;8357171;28;20052;-64
2022/03/14 05:17:17;;;;;;;5.68;2.63;;;;;;;10.55;100.00;101133.66;8339473;28;20412;-64
2022/03/14 05:21:18;;;;;;;4.78;2.25;;;;;;;10.52;100.00;101134.75;8355512;28;20036;-63
2022/03/14 05:25:20;;;;;;;5.15;2.20;;;;;;;10.53;100.00;101144.59;8356296;28;20029;-64
2022/03/14 05:29:21;;;;;;;3.13;2.28;;;;;;;10.52;100.00;101150.97;8356159;28;20029;-64
2022/03/14 05:33:22;;;;;;;5.88;2.67;;;;;;;10.50;100.00;101158.34;8351379;28;20035;-64
2022/03/14 05:37:22;;;;;;;2.95;2.30;;;;;;;10.52;100.00;101161.78;8352465;28;20041;-64
2022/03/14 05:41:22;;;;;;;4.90;2.35;;;;;;;10.45;100.00;101160.56;8352408;28;20029;-64
2022/03/14 05:45:23;;;;;;;5.13;2.67;;;;;;;10.46;100.00;101167.69;8352369;28;20033;-64
2022/03/14 05:49:23;;;;;;;6.57;2.00;;;;;;;10.42;100.00;101163.50;8351963;28;20413;-64
2022/03/14 05:53:24;;;;;;;3.30;2.20;;;;;;;10.42;100.00;101166.22;8352398;28;20065;-64
2022/03/14 05:57:25;;;;;;;4.90;2.13;;;;;;;10.39;100.00;101162.88;8333776;28;20492;-64
2022/03/14 06:01:25;;;;;;;9.85;2.47;;;;;;;10.39;100.00;101166.47;8351637;28;20037;-64
2022/03/14 06:05:25;;;;;;;5.93;2.17;;;;;;;10.32;100.00;101177.88;8352445;28;20078;-64
2022/03/14 06:09:26;;;;;;;8.75;2.42;;;;;;;10.26;100.00;101181.94;8351942;28;20108;-64
2022/03/14 06:13:26;;;;;;;10.10;3.78;;;;;;;10.31;100.00;101195.94;8349602;28;20372;-64
2022/03/14 06:17:27;;;;;;;9.10;2.85;;;;;;;10.33;100.00;101203.91;8351280;28;20053;-64
2022/03/14 06:21:27;;;;;;;7.57;2.33;;;;;;;10.36;99.12;101209.97;8345158;28;20044;-64
2022/03/14 06:25:28;;;;;;;5.15;2.28;;;;;;;10.44;98.70;101209.34;8346344;28;20044;-64
2022/03/14 06:29:28;;;;;;;8.32;2.85;;;;;;;10.48;97.96;101224.31;8339448;28;20504;-64
2022/03/14 06:33:28;;;;;;;5.70;2.30;;;;;;;10.55;97.93;101220.16;8345009;28;20045;-65
2022/03/14 06:37:29;;;;;;;14.82;2.80;;;;;;;10.63;96.76;101228.50;8357930;28;20029;-65
2022/03/14 06:41:31;;;;;;;10.10;2.83;;;;;;;10.57;97.66;101224.47;8355800;28;20040;-65
2022/03/14 06:45:32;;;;;;;9.15;3.47;;;;;;;10.56;98.12;101232.69;8358883;28;20523;-65
2022/03/14 06:49:32;;;;;;;7.80;2.80;;;;;;;10.60;98.33;101229.63;8358180;28;20455;-65
2022/03/14 06:53:33;;;;;;;9.52;2.60;;;;;;;10.77;97.13;101247.19;8357769;28;20033;-65
2022/03/14 06:57:33;;;;;;;11.57;3.10;;;;;;;10.84;97.73;101243.88;8357848;28;20045;-65
2022/03/14 07:01:34;;;;;;;6.82;2.78;;;;;;;10.69;98.53;101250.53;8339429;28;20426;-65
2022/03/14 07:05:34;;;;;;;9.50;3.22;;;;;;;10.73;98.99;101251.97;8357930;28;20374;-65
2022/03/14 07:09:35;;;;;;;9.68;2.75;;;;;;;10.77;97.70;101264.25;8357523;28;20090;-64
2022/03/14 07:13:36;;;;;;;7.97;3.20;;;;;;;10.85;98.13;101269.06;8357641;28;20218;-65
2022/03/14 07:17:36;;;;;;;7.00;2.90;;;;;;;10.87;97.63;101281.50;8357453;28;20524;-65
2022/03/14 07:21:36;;;;;;;8.93;3.10;;;;;;;10.94;96.64;101282.72;8357320;28;20072;-65
2022/03/14 07:25:37;;;;;;;10.00;2.70;;;;;;;10.99;93.96;101280.50;8339497;28;20400;-64
2022/03/14 07:29:38;;;;;;;10.77;2.30;;;;;;;11.12;93.33;101293.88;8356777;28;20500;-64
2022/03/14 07:33:39;;;;;;;9.13;2.50;;;;;;;11.16;93.36;101298.91;8356851;28;20408;-64
2022/03/14 07:37:40;;;;;;;6.18;2.45;;;;;;;11.18;93.61;101296.09;8357394;28;20033;-64
2022/03/14 07:41:40;;;;;;;9.05;2.47;;;;;;;11.27;93.49;101307.03;8338720;28;20481;-64
2022/03/14 07:45:41;;;;;;;12.98;2.95;;;;;;;11.41;93.88;101314.84;8338530;28;20041;-64
2022/03/14 07:49:41;;;;;;;11.25;2.95;;;;;;;11.49;92.71;101327.75;8356076;28;20131;-64
2022/03/14 07:53:42;;;;;;;7.68;2.78;;;;;;;11.76;94.29;101348.06;8338957;28;20111;-64
2022/03/14 07:57:43;;;;;;;9.25;2.60;;;;;;;11.87;92.26;101344.44;8356054;28;20498;-64
2022/03/14 08:01:43;;;;;;;6.18;2.15;;;;;;;12.03;92.30;101346.72;8356207;28;20118;-64
2022/03/14 08:05:45;;;;;;;7.68;2.92;;;;;;;12.14;91.32;101358.34;8356557;28;20322;-64
2022/03/14 08:09:48;;;;;;;6.82;2.05;;;;;;;12.19;90.83;101356.13;8356348;28;20044;-64
2022/03/14 08:13:48;;;;;;;8.68;2.50;;;;;;;12.25;89.17;101360.16;8371264;28;20043;-64
2022/03/14 08:17:50;;;;;;;10.18;2.15;;;;;;;12.37;89.71;101375.38;8355233;28;20048;-64
2022/03/14 08:21:51;;;;;;;8.50;1.88;;;;;;;12.43;87.16;101370.31;8355529;28;20163;-64
2022/03/14 08:25:53;;;;;;;5.20;1.80;;;;;;;12.63;86.75;101379.44;8346739;28;20453;-64
2022/03/14 08:29:54;;;;;;;6.00;1.83;;;;;;;12.80;84.98;101389.66;8348328;28;20040;-64
2022/03/14 08:33:54;;;;;;;7.93;1.80;;;;;;;12.85;83.98;101387.44;8348856;28;20037;-64
2022/03/14 08:37:56;;;;;;;9.20;2.10;;;;;;;12.87;83.06;101396.31;8348684;28;20037;-64
2022/03/14 08:41:57;;;;;;;5.05;1.83;;;;;;;13.11;81.55;101395.03;8344529;28;20040;-64
2022/03/14 08:45:57;;;;;;;6.28;1.48;;;;;;;13.82;81.69;101402.16;8348191;28;20048;-64
2022/03/14 08:49:58;;;;;;;6.80;1.50;;;;;;;13.97;78.43;101411.63;8345562;28;20037;-64
2022/03/14 08:53:58;;;;;;;4.38;1.70;;;;;;;14.12;79.25;101410.19;8347703;28;20626;-65
2022/03/14 08:57:58;;;;;;;5.53;1.92;;;;;;;13.95;78.44;101415.47;8345239;28;20121;-65
2022/03/14 09:01:59;;;;;;;6.22;2.78;;;;;;;13.52;79.88;101426.66;8348150;28;20040;-65
2022/03/14 09:05:59;;;;;;;4.95;1.73;;;;;;;13.21;79.54;101433.94;8327942;28;20153;-65
2022/03/14 09:10:09;;;;;;;5.43;2.28;;;;;;;13.14;80.33;101440.06;8347725;28;20120;-65
2022/03/14 09:14:10;;;;;;;4.65;2.00;;;;;;;13.24;79.18;101441.00;8327056;28;20568;-65
2022/03/14 09:18:11;;;;;;;6.03;2.38;;;;;;;13.24;79.53;101449.97;8328162;28;20428;-65
2022/03/14 09:22:11;;;;;;;3.92;1.90;;;;;;;13.87;77.23;101454.25;8329818;28;20151;-65
2022/03/14 09:26:12;;;;;;;2.85;1.50;;;;;;;14.77;75.00;101456.66;8348189;28;20507;-65
2022/03/14 09:30:13;;;;;;;3.08;1.63;;;;;;;16.57;69.64;101464.25;8347534;28;20047;-65
2022/03/14 09:34:14;;;;;;;3.75;1.67;;;;;;;18.45;64.04;101458.56;8353176;28;20041;-65
2022/03/14 09:38:16;;;;;;;3.40;1.30;;;;;;;18.87;60.41;101459.28;8344736;28;20102;-65
2022/03/14 09:42:22;;;;;;;3.03;1.27;;;;;;;18.80;59.42;101463.75;8346989;28;20546;-65
2022/03/14 09:46:25;;;;;;;5.07;1.83;;;;;;;17.04;63.25;101479.31;8344168;28;20049;-65
2022/03/14 09:50:32;;;;;;;2.38;1.05;;;;;;;18.23;60.23;101463.75;8339827;28;20057;-65
2022/03/14 09:54:32;;;;;;;1.52;1.20;;;;;;;19.39;57.52;101471.63;8342349;28;20044;-66
2022/03/14 09:58:32;;;;;;;2.40;1.23;;;;;;;18.04;60.45;101480.47;8327523;28;20045;-66
2022/03/14 10:02:36;;;;;;;2.80;1.37;;;;;;;18.33;58.89;101487.25;8347552;28;20041;-66
2022/03/14 10:06:38;;;;;;;3.83;1.70;;;;;;;18.59;57.49;101499.00;8340787;28;20279;-66
2022/03/14 10:10:40;;;;;;;5.22;1.50;;;;;;;16.06;62.05;101508.50;8329179;28;20037;-66
2022/03/14 10:14:40;;;;;;;6.05;2.30;;;;;;;15.06;66.73;101513.81;8346861;28;20028;-66
2022/03/14 10:18:58;;;;;;;5.20;1.90;;;;;;;14.52;68.83;101516.25;8346666;28;20051;-66
2022/03/14 10:23:00;;;;;;;7.85;2.67;;;;;;;14.32;69.46;101520.81;8346980;28;20102;-66
2022/03/14 10:27:01;;;;;;;3.90;2.28;;;;;;;14.81;68.97;101523.44;8346851;28;20053;-66
2022/03/14 10:31:03;;;;;;;4.32;2.00;;;;;;;14.82;68.10;101525.13;8346489;28;20037;-66
2022/03/14 10:35:07;;;;;;;2.70;1.80;;;;;;;15.84;65.03;101524.41;8327512;28;20037;-66
2022/03/14 10:43:37;;;;;;;3.97;2.00;;;;;;;14.60;68.12;101535.44;8342816;28;20791;-63
2022/03/14 10:47:44;;;;;;;5.55;2.17;;;;;;;14.27;68.68;101542.13;8342666;28;20041;-63
2022/03/14 10:52:02;;;;;;;2.95;1.88;;;;;;;14.14;68.44;101544.19;8342962;28;20503;-64
2022/03/14 10:56:03;;;;;;;3.05;1.55;;;;;;;14.25;67.91;101541.41;8339963;28;20048;-64
2022/03/14 11:00:06;;;;;;;3.45;1.25;;;;;;;14.19;67.01;101552.81;8315447;28;20042;-64
2022/03/14 11:04:07;;;;;;;3.35;1.65;;;;;;;13.99;67.29;101561.88;8309564;28;20494;-64
2022/03/14 11:08:28;;;;;;;6.38;1.52;;;;;;;14.20;67.99;101561.81;8309145;28;20407;-64
2022/03/14 11:12:30;;;;;;;4.60;1.40;;;;;;;14.35;66.76;101574.94;8308501;28;20069;-64
2022/03/14 11:16:34;;;;;;;4.50;1.70;;;;;;;14.61;66.29;101565.25;8306586;28;20199;-64
2022/03/14 11:20:34;;;;;;;3.60;1.48;;;;;;;15.06;64.85;101574.59;8340944;28;20234;-64
2022/03/14 11:24:35;;;;;;;2.67;1.25;;;;;;;15.65;63.42;101564.34;8341894;28;20263;-65
2022/03/14 11:28:41;;;;;;;1.10;0.70;;;;;;;16.51;61.27;101564.00;8340883;28;20041;-64
2022/03/14 11:32:42;;;;;;;6.18;0.50;;;;;;;16.54;59.31;101571.03;8341438;28;20502;-64
2022/03/14 11:36:43;;;;;;;0.82;0.60;;;;;;;18.21;55.81;101570.69;8340794;28;20460;-64
2022/03/14 11:40:44;;;;;;;3.15;0.60;;;;;;;17.56;56.89;101571.34;8340915;28;20056;-64
2022/03/14 11:44:46;;;;;;;1.50;0.90;;;;;;;19.28;53.89;101578.91;8331666;28;20049;-65
2022/03/14 11:48:46;;;;;;;3.90;1.20;;;;;;;18.82;54.33;101576.75;8326017;28;20128;-65
2022/03/14 11:52:50;;;;;;;5.53;1.53;;;;;;;16.88;57.45;101580.28;8304272;28;20057;-64
2022/03/14 11:56:56;;;;;;;4.43;1.50;;;;;;;16.56;58.89;101582.66;8271030;28;20901;-64
2022/03/14 12:00:57;;;;;;;3.25;1.52;;;;;;;16.04;60.21;101572.41;8287074;28;20060;-64
2022/03/14 12:05:00;;;;;;;5.82;1.73;;;;;;;15.85;59.61;101572.50;8301124;28;20088;-64
2022/03/14 12:09:01;;;;;;;6.27;1.67;;;;;;;17.28;57.34;101575.19;8312716;28;20049;-64
2022/03/14 12:13:02;;;;;;;3.85;1.38;;;;;;;21.44;50.69;101565.38;8312005;28;21256;-64
2022/03/14 12:17:21;;;;;;;4.35;2.00;;;;;;;20.16;50.35;101563.38;8280072;28;20090;-64
2022/03/14 12:21:45;;;;;;;5.45;2.25;;;;;;;17.69;54.71;101579.13;8299443;28;20502;-65
2022/03/14 12:25:45;;;;;;;4.85;2.22;;;;;;;16.53;58.38;101566.59;8312081;28;20029;-65
2022/03/14 12:29:49;;;;;;;5.65;2.22;;;;;;;16.26;59.34;101570.16;8305629;28;20136;-65
2022/03/14 12:33:50;;;;;;;7.40;2.95;;;;;;;17.29;58.43;101585.09;8304969;28;20047;-65
2022/03/14 12:37:54;;;;;;;4.53;2.58;;;;;;;20.24;51.71;101579.81;8272642;28;20049;-64
2022/03/14 12:42:23;;;;;;;3.95;1.38;;;;;;;20.05;50.56;101592.03;8278184;28;20417;-64
2022/03/14 12:46:25;;;;;;;4.65;1.45;;;;;;;17.64;55.29;101598.75;8308906;28;20048;-64
2022/03/14 12:55:18;;;;;;;7.15;1.40;;;;;;;15.61;59.87;101590.19;8299902;27;20395;-63
2022/03/14 12:59:19;;;;;;;7.32;1.50;;;;;;;15.62;61.32;101600.09;8284433;28;20549;-63
2022/03/14 13:03:29;;;;;;;8.98;2.10;;;;;;;15.52;63.15;101601.97;8299842;28;20438;-63
2022/03/14 13:07:33;;;;;;;6.13;2.30;;;;;;;15.77;61.15;101594.19;8301392;28;20334;-63
2022/03/14 13:11:39;;;;;;;9.27;3.33;;;;;;;16.23;60.07;101594.16;8294297;28;20489;-63
2022/03/14 13:15:42;;;;;;;7.80;2.60;;;;;;;16.27;61.98;101587.38;8287878;28;20053;-63
2022/03/14 13:19:44;;;;;;;13.95;2.63;;;;;;;16.27;61.25;101590.09;8282388;28;20330;-63
2022/03/14 13:23:45;;;;;;;8.63;2.72;;;;;;;16.30;60.28;101582.50;8281788;28;20061;-63
2022/03/14 13:27:52;;;;;;;10.35;2.60;;;;;;;15.92;61.72;101592.72;8281790;28;20060;-64
2022/03/14 13:31:53;;;;;;;11.18;2.30;;;;;;;15.69;60.74;101600.38;8283149;28;20095;-64
2022/03/14 13:35:55;;;;;;;6.32;2.50;;;;;;;15.83;62.57;101609.97;8283152;28;20041;-64
2022/03/14 13:39:55;;;;;;;9.13;2.60;;;;;;;15.66;62.82;101609.72;8294494;28;20045;-64
2022/03/14 13:43:58;;;;;;;9.70;3.27;;;;;;;15.60;62.83;101604.84;8295547;28;20045;-64
2022/03/14 13:47:59;;;;;;;5.68;2.00;;;;;;;15.66;63.28;101611.56;8282008;28;20323;-64
2022/03/14 13:52:06;;;;;;;7.00;2.10;;;;;;;15.73;62.40;101609.13;8287761;28;20053;-63
2022/03/14 13:56:09;;;;;;;14.02;2.45;;;;;;;15.66;60.36;101608.84;8281245;28;20405;-64
2022/03/14 14:00:13;;;;;;;7.20;2.63;;;;;;;15.72;58.75;101619.16;8282883;28;20483;-64
2022/03/14 14:04:22;;;;;;;11.77;2.63;;;;;;;16.12;60.85;101605.25;8276043;28;20046;-65
2022/03/14 14:08:34;;;;;;;7.93;2.35;;;;;;;15.92;60.99;101609.06;8267538;28;20037;-64
2022/03/14 14:12:35;;;;;;;5.95;2.08;;;;;;;15.95;59.94;101608.78;8275922;28;20466;-64
2022/03/14 14:16:37;;;;;;;13.85;3.15;;;;;;;15.81;60.33;101611.97;8258092;28;20324;-64
2022/03/14 14:20:37;;;;;;;8.30;2.70;;;;;;;15.72;60.47;101611.00;8269388;28;20099;-64
2022/03/14 14:24:47;;;;;;;8.70;2.50;;;;;;;15.56;59.92;101614.31;8269585;28;20065;-64
2022/03/14 14:28:47;;;;;;;15.20;2.67;;;;;;;15.78;59.59;101613.13;8256742;28;20116;-64
2022/03/14 14:32:48;;;;;;;10.38;2.05;;;;;;;15.74;58.58;101601.63;8253690;28;20038;-64
2022/03/14 14:36:48;;;;;;;8.07;1.80;;;;;;;15.73;59.01;101620.03;8271128;28;20041;-64
2022/03/14 14:40:52;;;;;;;9.80;2.05;;;;;;;15.46;59.57;101618.91;8270238;28;20871;-64
2022/03/14 14:44:57;;;;;;;5.28;2.08;;;;;;;15.34;60.36;101614.59;8265408;28;20338;-64
2022/03/14 14:48:58;;;;;;;7.22;1.73;;;;;;;15.46;61.46;101624.38;8257448;28;20038;-60
2022/03/14 14:52:59;;;;;;;5.37;1.60;;;;;;;15.84;60.71;101619.84;8269272;28;20042;-60
2022/03/14 14:57:00;;;;;;;7.45;1.83;;;;;;;15.71;59.72;101612.84;8267774;28;20304;-61
2022/03/14 15:01:00;;;;;;;8.20;2.15;;;;;;;15.73;61.32;101616.28;8262349;28;20050;-63
2022/03/14 15:05:00;;;;;;;8.88;2.15;;;;;;;15.57;62.42;101610.59;8262880;28;20046;-63
2022/03/14 15:09:02;;;;;;;14.00;2.40;;;;;;;15.37;62.88;101608.88;8266466;28;20247;-63
2022/03/14 15:13:03;;;;;;;8.35;2.08;;;;;;;15.18;61.79;101603.41;8283216;28;20042;-63
2022/03/14 15:17:04;;;;;;;8.18;1.83;;;;;;;15.24;62.22;101601.97;8250400;28;20097;-63
2022/03/14 15:21:04;;;;;;;8.18;2.15;;;;;;;14.86;62.92;101602.84;8270337;28;20537;-63
2022/03/14 15:25:06;;;;;;;6.80;1.90;;;;;;;14.81;62.73;101591.50;8268313;28;20038;-63
2022/03/14 15:29:07;;;;;;;7.30;1.80;;;;;;;14.80;63.69;101603.41;8264193;28;20100;-63
2022/03/14 15:33:07;;;;;;;9.00;2.08;;;;;;;14.79;62.65;101615.28;8251732;28;20034;-63
2022/03/14 15:37:07;;;;;;;8.02;1.67;;;;;;;15.00;63.48;101616.03;8259748;28;20073;-63
2022/03/14 15:41:08;;;;;;;3.90;1.67;;;;;;;14.91;61.81;101616.88;8266257;28;20042;-63
2022/03/14 15:45:10;;;;;;;5.57;1.38;;;;;;;14.83;62.95;101619.47;8262311;28;20042;-63
2022/03/14 15:49:10;;;;;;;8.38;1.85;;;;;;;14.77;62.60;101625.47;8256819;28;20030;-63
2022/03/14 15:53:11;;;;;;;4.75;2.20;;;;;;;14.62;63.94;101626.88;8254453;28;20046;-63
2022/03/14 15:57:11;;;;;;;7.10;1.75;;;;;;;14.48;64.60;101629.97;8254680;28;20034;-63
2022/03/14 16:01:12;;;;;;;7.95;2.35;;;;;;;14.41;65.41;101638.81;8264215;28;20574;-63
2022/03/14 16:05:13;;;;;;;5.43;2.00;;;;;;;14.29;65.83;101651.66;8259925;28;20099;-63
2022/03/14 16:09:14;;;;;;;5.35;1.83;;;;;;;14.15;66.98;101660.13;8281021;28;20398;-64
2022/03/14 16:13:16;;;;;;;10.93;2.10;;;;;;;13.96;67.86;101665.47;8262495;28;20145;-64
2022/03/14 16:17:17;;;;;;;9.70;2.00;;;;;;;14.17;66.16;101673.59;8254265;28;20041;-64
2022/03/14 16:21:18;;;;;;;5.38;1.63;;;;;;;14.17;66.17;101674.47;8266078;28;20498;-64
2022/03/14 16:25:18;;;;;;;10.90;2.08;;;;;;;14.26;65.18;101684.56;8254540;28;20409;-64
2022/03/14 16:29:19;;;;;;;8.38;1.85;;;;;;;14.19;65.15;101688.81;8253798;28;20055;-64
2022/03/14 16:33:19;;;;;;;10.48;1.73;;;;;;;14.14;66.34;101691.06;8253996;28;20066;-64
2022/03/14 16:37:19;;;;;;;12.18;2.75;;;;;;;14.15;65.73;101695.50;8261303;28;20038;-64
2022/03/14 16:41:20;;;;;;;9.68;2.67;;;;;;;13.92;66.97;101703.94;8268241;28;20096;-64
2022/03/14 16:45:23;;;;;;;9.90;2.78;;;;;;;13.98;66.41;101712.44;8279815;28;20061;-64
2022/03/14 16:49:24;;;;;;;8.90;2.13;;;;;;;13.87;66.86;101714.38;8276665;28;20495;-64
2022/03/14 16:53:26;;;;;;;9.25;2.20;;;;;;;13.71;67.61;101709.38;8259307;28;20388;-64
2022/03/14 16:57:26;;;;;;;9.98;1.65;;;;;;;13.68;67.64;101715.09;8265321;28;20517;-64
2022/03/14 17:01:27;;;;;;;10.43;1.90;;;;;;;13.45;68.29;101710.75;8277573;28;20391;-64
2022/03/14 17:05:28;;;;;;;6.05;1.90;;;;;;;13.31;68.91;101709.22;8280256;28;20588;-64
2022/03/14 17:09:28;;;;;;;5.90;2.00;;;;;;;13.16;69.23;101706.91;8279791;28;20038;-64
2022/03/14 17:13:29;;;;;;;6.18;2.00;;;;;;;13.27;68.70;101698.72;8277575;28;20038;-64
2022/03/14 17:17:30;;;;;;;11.15;2.00;;;;;;;13.18;68.55;101705.78;8281945;28;20045;-64
2022/03/14 17:21:30;;;;;;;7.55;1.58;;;;;;;13.11;68.99;101714.56;8265539;28;20514;-64
2022/03/14 17:25:31;;;;;;;6.13;2.25;;;;;;;13.01;69.08;101713.59;8254233;28;20042;-64
2022/03/14 17:29:32;;;;;;;5.50;1.83;;;;;;;12.92;69.89;101720.63;8255461;28;20034;-64
2022/03/14 17:33:32;;;;;;;8.45;2.00;;;;;;;12.41;71.78;101710.44;8257574;28;20141;-64
2022/03/14 17:37:34;;;;;;;6.60;1.88;;;;;;;12.53;71.08;101717.59;8259414;28;20129;-64
2022/03/14 17:41:37;;;;;;;13.25;2.88;;;;;;;12.55;70.56;101715.59;8273485;28;20180;-64
2022/03/14 17:45:38;;;;;;;8.07;1.90;;;;;;;12.43;72.26;101711.16;8278160;28;20125;-64
2022/03/14 17:49:39;;;;;;;8.32;1.70;;;;;;;11.82;74.04;101712.47;8266012;28;20088;-64
2022/03/14 17:53:39;;;;;;;5.90;1.58;;;;;;;11.73;73.86;101722.16;8287006;28;20160;-64
2022/03/14 17:57:40;;;;;;;4.90;1.52;;;;;;;11.61;75.31;101725.78;8254045;28;20318;-63
2022/03/14 18:01:40;;;;;;;6.65;1.80;;;;;;;11.20;77.45;101728.03;8253965;28;20077;-63
2022/03/14 18:05:41;;;;;;;6.22;1.75;;;;;;;11.56;76.02;101736.09;8259330;28;20592;-63
2022/03/14 18:09:41;;;;;;;9.77;2.22;;;;;;;11.38;76.84;101742.06;8260199;28;20042;-63
2022/03/14 18:13:42;;;;;;;18.70;4.45;;;;;;;11.21;77.64;101762.28;8261517;28;20736;-63
2022/03/14 18:17:42;;;;;;;12.23;3.78;;;;;;;11.42;77.64;101768.81;8262737;28;20049;-63
2022/03/14 18:21:42;;;;;;;14.35;2.00;;;;;;;11.06;79.66;101779.66;8258002;28;20149;-63
2022/03/14 18:25:44;;;;;;;4.38;1.80;;;;;;;10.89;79.02;101780.00;8253252;28;20495;-63
2022/03/14 18:29:44;;;;;;;4.78;2.70;;;;;;;10.11;81.86;101774.91;8252556;28;20038;-63
2022/03/14 18:33:50;;;;;;;10.37;2.33;;;;;;;10.22;81.40;101772.31;8253490;28;20094;-63
2022/03/14 18:37:50;;;;;;;8.60;1.83;;;;;;;10.58;78.22;101763.44;8254108;28;20300;-63
2022/03/14 18:41:53;;;;;;;10.00;2.50;;;;;;;10.45;80.66;101776.94;8270278;28;20505;-63
2022/03/14 18:45:54;;;;;;;12.15;2.30;;;;;;;10.13;81.20;101778.38;8281923;28;20292;-63
2022/03/14 18:49:54;;;;;;;8.75;3.88;;;;;;;10.36;81.15;101783.00;8272285;28;20038;-63